sensor_id;sensor_type;location;lat;lon;timestamp;noise_LAeq;noise_LA_min;noise_LA_max;noise_LA01;noise_LA95
49568;Laerm;35474;51.032;6.998;2023-04-25T00:00:33;44.29;41.68;47.00;;
49568;Laerm;35474;51.032;6.998;2023-04-25T00:02:59;44.41;42.29;46.01;;
49568;Laerm;35474;51.032;6.998;2023-04-25T00:05:27;45.28;42.47;54.60;;
49568;Laerm;35474;51.032;6.998;2023-04-25T00:07:53;52.41;42.71;67.40;;
49568;Laerm;35474;51.032;6.998;2023-04-25T00:10:20;54.53;42.35;70.39;;
49568;Laerm;35474;51.032;6.998;2023-04-25T00:12:46;53.83;42.16;68.70;;
49568;Laerm;35474;51.032;6.998;2023-04-25T00:15:14;46.63;42.29;56.48;;
49568;Laerm;35474;51.032;6.998;2023-04-25T00:17:40;44.84;42.53;52.34;;
49568;Laerm;35474;51.032;6.998;2023-04-25T00:20:07;53.49;42.41;65.40;;
49568;Laerm;35474;51.032;6.998;2023-04-25T00:22:37;45.98;42.35;58.24;;
49568;Laerm;35474;51.032;6.998;2023-04-25T00:25:05;44.34;42.16;46.30;;
49568;Laerm;35474;51.032;6.998;2023-04-25T00:27:32;57.41;41.75;73.61;;
49568;Laerm;35474;51.032;6.998;2023-04-25T00:29:58;46.55;42.09;56.69;;
49568;Laerm;35474;51.032;6.998;2023-04-25T00:32:26;51.95;41.38;66.18;;
49568;Laerm;35474;51.032;6.998;2023-04-25T00:34:52;44.19;42.53;45.63;;
49568;Laerm;35474;51.032;6.998;2023-04-25T00:37:19;44.26;42.09;46.35;;
49568;Laerm;35474;51.032;6.998;2023-04-25T00:39:46;44.19;42.35;46.33;;
49568;Laerm;35474;51.032;6.998;2023-04-25T00:42:13;44.30;42.29;46.02;;
49568;Laerm;35474;51.032;6.998;2023-04-25T00:44:42;52.28;42.03;66.03;;
49568;Laerm;35474;51.032;6.998;2023-04-25T00:47:10;44.02;41.06;46.93;;
49568;Laerm;35474;51.032;6.998;2023-04-25T00:49:37;50.12;41.61;63.66;;
49568;Laerm;35474;51.032;6.998;2023-04-25T00:52:04;43.86;41.68;52.42;;
49568;Laerm;35474;51.032;6.998;2023-04-25T00:54:30;43.92;41.68;45.80;;
49568;Laerm;35474;51.032;6.998;2023-04-25T00:56:58;54.72;42.09;68.18;;
49568;Laerm;35474;51.032;6.998;2023-04-25T00:59:25;43.96;42.03;45.60;;
49568;Laerm;35474;51.032;6.998;2023-04-25T01:01:51;48.24;42.03;62.15;;
49568;Laerm;35474;51.032;6.998;2023-04-25T01:04:18;53.56;42.16;66.52;;
49568;Laerm;35474;51.032;6.998;2023-04-25T01:06:45;43.99;41.89;45.91;;
49568;Laerm;35474;51.032;6.998;2023-04-25T01:09:12;43.90;41.68;50.30;;
49568;Laerm;35474;51.032;6.998;2023-04-25T01:11:39;57.21;41.82;72.41;;
49568;Laerm;35474;51.032;6.998;2023-04-25T01:14:06;43.75;41.89;45.17;;
49568;Laerm;35474;51.032;6.998;2023-04-25T01:16:32;43.55;41.53;44.90;;
49568;Laerm;35474;51.032;6.998;2023-04-25T01:18:59;44.98;39.46;64.04;;
49568;Laerm;35474;51.032;6.998;2023-04-25T01:21:26;43.94;40.89;61.23;;
49568;Laerm;35474;51.032;6.998;2023-04-25T01:23:54;43.71;40.71;54.84;;
49568;Laerm;35474;51.032;6.998;2023-04-25T01:26:21;51.41;40.80;65.84;;
49568;Laerm;35474;51.032;6.998;2023-04-25T01:28:48;46.01;42.09;57.38;;
49568;Laerm;35474;51.032;6.998;2023-04-25T01:31:15;44.15;40.33;63.34;;
49568;Laerm;35474;51.032;6.998;2023-04-25T01:33:42;43.74;40.33;56.79;;
49568;Laerm;35474;51.032;6.998;2023-04-25T01:36:09;44.12;40.43;61.31;;
49568;Laerm;35474;51.032;6.998;2023-04-25T01:38:36;43.75;40.62;52.36;;
49568;Laerm;35474;51.032;6.998;2023-04-25T01:41:02;43.94;40.89;61.96;;
49568;Laerm;35474;51.032;6.998;2023-04-25T01:43:29;47.13;41.61;58.24;;
49568;Laerm;35474;51.032;6.998;2023-04-25T01:45:56;54.35;39.70;69.28;;
49568;Laerm;35474;51.032;6.998;2023-04-25T01:48:23;54.91;42.22;65.80;;
49568;Laerm;35474;51.032;6.998;2023-04-25T01:50:50;47.91;40.33;65.11;;
49568;Laerm;35474;51.032;6.998;2023-04-25T01:53:16;46.25;40.13;63.98;;
49568;Laerm;35474;51.032;6.998;2023-04-25T01:55:43;47.71;40.03;67.00;;
49568;Laerm;35474;51.032;6.998;2023-04-25T01:58:09;47.00;43.86;68.01;;
49568;Laerm;35474;51.032;6.998;2023-04-25T02:00:38;51.70;41.14;71.00;;
49568;Laerm;35474;51.032;6.998;2023-04-25T02:03:06;58.04;40.53;81.71;;
49568;Laerm;35474;51.032;6.998;2023-04-25T02:05:39;51.14;40.33;65.12;;
49568;Laerm;35474;51.032;6.998;2023-04-25T02:08:07;51.10;39.58;66.10;;
49568;Laerm;35474;51.032;6.998;2023-04-25T02:10:35;53.97;41.61;70.92;;
49568;Laerm;35474;51.032;6.998;2023-04-25T02:13:02;54.23;40.33;68.05;;
49568;Laerm;35474;51.032;6.998;2023-04-25T02:15:30;54.36;41.14;72.55;;
49568;Laerm;35474;51.032;6.998;2023-04-25T02:17:57;52.63;40.98;68.73;;
49568;Laerm;35474;51.032;6.998;2023-04-25T02:20:24;63.57;41.46;88.38;;
49568;Laerm;35474;51.032;6.998;2023-04-25T02:22:51;59.56;41.68;80.42;;
49568;Laerm;35474;51.032;6.998;2023-04-25T02:25:19;55.20;40.89;75.71;;
49568;Laerm;35474;51.032;6.998;2023-04-25T02:27:47;54.80;41.61;67.17;;
49568;Laerm;35474;51.032;6.998;2023-04-25T02:30:13;51.66;42.47;70.42;;
49568;Laerm;35474;51.032;6.998;2023-04-25T02:32:40;53.31;42.09;70.07;;
49568;Laerm;35474;51.032;6.998;2023-04-25T02:35:07;53.54;40.98;69.80;;
49568;Laerm;35474;51.032;6.998;2023-04-25T02:37:36;59.20;41.22;70.34;;
49568;Laerm;35474;51.032;6.998;2023-04-25T02:40:03;50.25;40.62;67.50;;
49568;Laerm;35474;51.032;6.998;2023-04-25T02:42:30;56.83;41.96;69.05;;
49568;Laerm;35474;51.032;6.998;2023-04-25T02:44:57;56.95;41.75;70.08;;
49568;Laerm;35474;51.032;6.998;2023-04-25T02:47:23;62.73;40.53;82.03;;
49568;Laerm;35474;51.032;6.998;2023-04-25T02:49:50;55.33;41.46;69.46;;
49568;Laerm;35474;51.032;6.998;2023-04-25T02:52:16;58.12;41.53;71.19;;
49568;Laerm;35474;51.032;6.998;2023-04-25T02:54:43;62.35;41.46;81.67;;
49568;Laerm;35474;51.032;6.998;2023-04-25T02:57:09;53.42;40.33;67.68;;
49568;Laerm;35474;51.032;6.998;2023-04-25T02:59:36;60.29;41.96;75.53;;
49568;Laerm;35474;51.032;6.998;2023-04-25T03:02:02;57.00;42.09;77.10;;
49568;Laerm;35474;51.032;6.998;2023-04-25T03:04:29;59.81;40.98;75.16;;
49568;Laerm;35474;51.032;6.998;2023-04-25T03:06:55;57.93;41.53;70.98;;
49568;Laerm;35474;51.032;6.998;2023-04-25T03:09:22;58.25;41.68;74.01;;
49568;Laerm;35474;51.032;6.998;2023-04-25T03:11:48;58.19;42.47;74.93;;
49568;Laerm;35474;51.032;6.998;2023-04-25T03:14:15;62.91;43.04;72.67;;
49568;Laerm;35474;51.032;6.998;2023-04-25T03:16:41;60.48;43.09;71.43;;
49568;Laerm;35474;51.032;6.998;2023-04-25T03:19:08;64.01;42.41;80.14;;
49568;Laerm;35474;51.032;6.998;2023-04-25T03:21:35;62.50;42.53;85.00;;
49568;Laerm;35474;51.032;6.998;2023-04-25T03:24:03;60.50;44.03;68.85;;
49568;Laerm;35474;51.032;6.998;2023-04-25T03:26:30;59.79;43.04;70.25;;
49568;Laerm;35474;51.032;6.998;2023-04-25T03:28:57;61.38;42.98;76.63;;
49568;Laerm;35474;51.032;6.998;2023-04-25T03:31:23;61.67;45.42;71.74;;
49568;Laerm;35474;51.032;6.998;2023-04-25T03:33:50;61.02;42.88;72.78;;
49568;Laerm;35474;51.032;6.998;2023-04-25T03:36:17;61.41;44.80;71.62;;
49568;Laerm;35474;51.032;6.998;2023-04-25T03:38:43;63.65;44.27;72.19;;
49568;Laerm;35474;51.032;6.998;2023-04-25T03:41:10;60.92;43.58;69.22;;
49568;Laerm;35474;51.032;6.998;2023-04-25T03:43:36;63.49;44.76;75.53;;
49568;Laerm;35474;51.032;6.998;2023-04-25T03:46:02;62.27;43.77;70.84;;
49568;Laerm;35474;51.032;6.998;2023-04-25T03:48:29;63.33;45.66;77.84;;
49568;Laerm;35474;51.032;6.998;2023-04-25T03:50:55;62.12;45.20;72.89;;
49568;Laerm;35474;51.032;6.998;2023-04-25T03:53:22;63.28;44.43;74.19;;
49568;Laerm;35474;51.032;6.998;2023-04-25T03:55:48;61.92;44.07;72.62;;
49568;Laerm;35474;51.032;6.998;2023-04-25T03:58:15;62.73;45.45;74.96;;
49568;Laerm;35474;51.032;6.998;2023-04-25T04:00:41;62.50;44.11;72.39;;
49568;Laerm;35474;51.032;6.998;2023-04-25T04:03:08;59.66;42.88;70.39;;
49568;Laerm;35474;51.032;6.998;2023-04-25T04:05:34;60.39;42.98;71.61;;
49568;Laerm;35474;51.032;6.998;2023-04-25T04:08:01;66.36;48.49;86.81;;
49568;Laerm;35474;51.032;6.998;2023-04-25T04:10:28;62.90;42.82;86.02;;
49568;Laerm;35474;51.032;6.998;2023-04-25T04:12:54;63.67;50.37;73.26;;
49568;Laerm;35474;51.032;6.998;2023-04-25T04:15:21;63.27;44.19;73.13;;
49568;Laerm;35474;51.032;6.998;2023-04-25T04:17:48;64.24;46.43;76.58;;
49568;Laerm;35474;51.032;6.998;2023-04-25T04:20:15;62.88;45.51;75.21;;
49568;Laerm;35474;51.032;6.998;2023-04-25T04:22:41;62.67;44.87;72.59;;
49568;Laerm;35474;51.032;6.998;2023-04-25T04:25:08;62.87;43.44;72.51;;
49568;Laerm;35474;51.032;6.998;2023-04-25T04:27:35;65.13;47.00;77.03;;
49568;Laerm;35474;51.032;6.998;2023-04-25T04:30:02;64.47;48.08;73.38;;
49568;Laerm;35474;51.032;6.998;2023-04-25T04:32:29;65.28;46.71;73.45;;
49568;Laerm;35474;51.032;6.998;2023-04-25T04:34:56;65.12;47.96;71.87;;
49568;Laerm;35474;51.032;6.998;2023-04-25T04:37:23;65.58;45.30;71.92;;
49568;Laerm;35474;51.032;6.998;2023-04-25T04:39:50;66.80;51.58;74.35;;
49568;Laerm;35474;51.032;6.998;2023-04-25T04:42:18;63.78;47.12;77.79;;
49568;Laerm;35474;51.032;6.998;2023-04-25T04:44:44;66.25;50.13;74.31;;
49568;Laerm;35474;51.032;6.998;2023-04-25T04:47:11;67.06;47.42;76.14;;
49568;Laerm;35474;51.032;6.998;2023-04-25T04:49:40;64.81;44.65;71.66;;
49568;Laerm;35474;51.032;6.998;2023-04-25T04:52:06;65.40;48.78;74.33;;
49568;Laerm;35474;51.032;6.998;2023-04-25T04:54:33;64.55;49.36;71.15;;
49568;Laerm;35474;51.032;6.998;2023-04-25T04:57:01;66.01;49.45;72.22;;
49568;Laerm;35474;51.032;6.998;2023-04-25T04:59:27;63.81;44.51;73.51;;
49568;Laerm;35474;51.032;6.998;2023-04-25T05:01:54;64.06;46.57;72.85;;
49568;Laerm;35474;51.032;6.998;2023-04-25T05:04:21;65.51;53.16;71.64;;
49568;Laerm;35474;51.032;6.998;2023-04-25T05:06:47;65.19;53.44;76.11;;
49568;Laerm;35474;51.032;6.998;2023-04-25T05:09:14;63.60;48.90;74.88;;
49568;Laerm;35474;51.032;6.998;2023-04-25T05:11:41;66.83;46.80;74.65;;
49568;Laerm;35474;51.032;6.998;2023-04-25T05:14:07;65.41;51.98;76.09;;
49568;Laerm;35474;51.032;6.998;2023-04-25T05:16:34;64.53;45.27;75.40;;
49568;Laerm;35474;51.032;6.998;2023-04-25T05:19:01;65.73;50.86;73.37;;
49568;Laerm;35474;51.032;6.998;2023-04-25T05:21:27;66.11;46.93;74.36;;
49568;Laerm;35474;51.032;6.998;2023-04-25T05:23:54;67.03;48.87;73.38;;
49568;Laerm;35474;51.032;6.998;2023-04-25T05:26:21;64.15;46.15;70.24;;
49568;Laerm;35474;51.032;6.998;2023-04-25T05:28:48;65.48;45.45;82.85;;
49568;Laerm;35474;51.032;6.998;2023-04-25T05:31:14;67.52;54.34;75.72;;
49568;Laerm;35474;51.032;6.998;2023-04-25T05:33:41;63.09;51.97;70.00;;
49568;Laerm;35474;51.032;6.998;2023-04-25T05:36:07;65.62;46.48;72.18;;
49568;Laerm;35474;51.032;6.998;2023-04-25T05:38:34;64.70;52.36;75.40;;
49568;Laerm;35474;51.032;6.998;2023-04-25T05:41:02;64.16;51.70;71.15;;
49568;Laerm;35474;51.032;6.998;2023-04-25T05:43:28;65.78;54.50;75.10;;
49568;Laerm;35474;51.032;6.998;2023-04-25T05:45:54;64.79;52.02;80.19;;
49568;Laerm;35474;51.032;6.998;2023-04-25T05:48:21;65.13;50.68;74.67;;
49568;Laerm;35474;51.032;6.998;2023-04-25T05:50:48;65.59;52.11;75.26;;
49568;Laerm;35474;51.032;6.998;2023-04-25T05:53:14;66.52;52.91;80.83;;
49568;Laerm;35474;51.032;6.998;2023-04-25T05:55:41;64.28;46.56;74.55;;
49568;Laerm;35474;51.032;6.998;2023-04-25T05:58:08;65.93;52.77;80.67;;
49568;Laerm;35474;51.032;6.998;2023-04-25T06:00:34;66.55;53.18;74.51;;
49568;Laerm;35474;51.032;6.998;2023-04-25T06:03:01;64.67;52.50;82.81;;
49568;Laerm;35474;51.032;6.998;2023-04-25T06:05:28;64.02;51.59;73.55;;
49568;Laerm;35474;51.032;6.998;2023-04-25T06:07:55;64.76;50.12;78.13;;
49568;Laerm;35474;51.032;6.998;2023-04-25T06:10:22;66.01;51.27;78.37;;
49568;Laerm;35474;51.032;6.998;2023-04-25T06:12:48;63.31;44.83;72.42;;
49568;Laerm;35474;51.032;6.998;2023-04-25T06:15:15;63.27;55.07;72.61;;
49568;Laerm;35474;51.032;6.998;2023-04-25T06:17:54;65.60;50.21;77.20;;
49568;Laerm;35474;51.032;6.998;2023-04-25T06:20:23;67.07;53.96;82.03;;
49568;Laerm;35474;51.032;6.998;2023-04-25T06:22:51;64.99;55.97;81.20;;
49568;Laerm;35474;51.032;6.998;2023-04-25T06:25:18;65.16;48.26;75.38;;
49568;Laerm;35474;51.032;6.998;2023-04-25T06:27:44;67.87;57.55;81.55;;
49568;Laerm;35474;51.032;6.998;2023-04-25T06:32:34;66.35;50.87;79.33;;
49568;Laerm;35474;51.032;6.998;2023-04-25T06:35:01;66.54;52.63;76.74;;
49568;Laerm;35474;51.032;6.998;2023-04-25T06:37:27;66.66;57.21;77.37;;
49568;Laerm;35474;51.032;6.998;2023-04-25T06:39:54;64.92;47.65;72.58;;
49568;Laerm;35474;51.032;6.998;2023-04-25T06:42:20;65.80;52.66;74.29;;
49568;Laerm;35474;51.032;6.998;2023-04-25T06:44:47;65.34;50.09;72.67;;
49568;Laerm;35474;51.032;6.998;2023-04-25T06:47:14;65.89;48.99;73.18;;
49568;Laerm;35474;51.032;6.998;2023-04-25T06:49:40;65.45;47.96;72.61;;
49568;Laerm;35474;51.032;6.998;2023-04-25T06:52:07;64.39;53.78;71.09;;
49568;Laerm;35474;51.032;6.998;2023-04-25T06:54:34;67.79;54.61;85.07;;
49568;Laerm;35474;51.032;6.998;2023-04-25T06:57:00;65.93;50.92;81.78;;
49568;Laerm;35474;51.032;6.998;2023-04-25T06:59:27;64.23;46.07;78.50;;
49568;Laerm;35474;51.032;6.998;2023-04-25T07:01:53;65.93;50.25;80.45;;
49568;Laerm;35474;51.032;6.998;2023-04-25T07:04:20;64.98;50.86;73.85;;
49568;Laerm;35474;51.032;6.998;2023-04-25T07:06:47;66.17;54.17;80.45;;
49568;Laerm;35474;51.032;6.998;2023-04-25T07:09:14;65.99;50.92;71.14;;
49568;Laerm;35474;51.032;6.998;2023-04-25T07:11:41;65.14;48.37;81.56;;
49568;Laerm;35474;51.032;6.998;2023-04-25T07:14:07;65.78;53.17;75.49;;
49568;Laerm;35474;51.032;6.998;2023-04-25T07:16:33;63.83;47.14;71.38;;
49568;Laerm;35474;51.032;6.998;2023-04-25T07:19:00;67.76;50.50;81.85;;
49568;Laerm;35474;51.032;6.998;2023-04-25T07:21:27;69.15;51.95;89.66;;
49568;Laerm;35474;51.032;6.998;2023-04-25T07:23:54;65.22;47.83;74.95;;
49568;Laerm;35474;51.032;6.998;2023-04-25T07:26:20;67.67;51.91;84.57;;
49568;Laerm;35474;51.032;6.998;2023-04-25T07:28:47;67.75;53.43;83.78;;
49568;Laerm;35474;51.032;6.998;2023-04-25T07:31:17;68.39;49.06;85.58;;
49568;Laerm;35474;51.032;6.998;2023-04-25T07:33:47;65.31;51.20;86.75;;
49568;Laerm;35474;51.032;6.998;2023-04-25T07:36:13;66.96;53.19;86.94;;
49568;Laerm;35474;51.032;6.998;2023-04-25T07:38:41;68.11;48.80;89.43;;
49568;Laerm;35474;51.032;6.998;2023-04-25T07:41:07;65.03;48.74;75.83;;
49568;Laerm;35474;51.032;6.998;2023-04-25T07:43:34;67.23;54.53;80.26;;
49568;Laerm;35474;51.032;6.998;2023-04-25T07:46:00;65.69;52.36;74.34;;
49568;Laerm;35474;51.032;6.998;2023-04-25T07:48:27;70.54;56.38;87.56;;
49568;Laerm;35474;51.032;6.998;2023-04-25T07:50:53;70.43;53.78;87.39;;
49568;Laerm;35474;51.032;6.998;2023-04-25T07:53:20;68.19;54.48;81.67;;
49568;Laerm;35474;51.032;6.998;2023-04-25T07:55:47;64.62;52.30;82.69;;
49568;Laerm;35474;51.032;6.998;2023-04-25T07:58:13;65.90;45.14;72.68;;
49568;Laerm;35474;51.032;6.998;2023-04-25T08:00:41;66.46;49.66;80.27;;
49568;Laerm;35474;51.032;6.998;2023-04-25T08:03:09;65.64;50.85;75.56;;
49568;Laerm;35474;51.032;6.998;2023-04-25T08:05:36;69.75;50.92;86.95;;
49568;Laerm;35474;51.032;6.998;2023-04-25T08:08:03;67.12;47.55;87.00;;
49568;Laerm;35474;51.032;6.998;2023-04-25T08:10:31;65.75;46.64;85.34;;
49568;Laerm;35474;51.032;6.998;2023-04-25T08:12:57;69.20;49.10;89.40;;
49568;Laerm;35474;51.032;6.998;2023-04-25T08:15:24;68.14;47.26;86.07;;
49568;Laerm;35474;51.032;6.998;2023-04-25T08:17:51;66.45;48.45;81.17;;
49568;Laerm;35474;51.032;6.998;2023-04-25T08:20:18;66.31;48.76;77.19;;
49568;Laerm;35474;51.032;6.998;2023-04-25T08:22:44;66.34;54.55;78.90;;
49568;Laerm;35474;51.032;6.998;2023-04-25T08:25:11;65.92;57.67;77.22;;
49568;Laerm;35474;51.032;6.998;2023-04-25T08:27:38;66.05;45.04;77.06;;
49568;Laerm;35474;51.032;6.998;2023-04-25T08:30:05;65.01;48.12;74.45;;
49568;Laerm;35474;51.032;6.998;2023-04-25T08:32:31;67.36;53.42;81.80;;
49568;Laerm;35474;51.032;6.998;2023-04-25T08:34:59;66.18;49.53;75.61;;
49568;Laerm;35474;51.032;6.998;2023-04-25T08:37:26;65.20;48.26;77.62;;
49568;Laerm;35474;51.032;6.998;2023-04-25T08:39:52;66.64;55.91;77.99;;
49568;Laerm;35474;51.032;6.998;2023-04-25T08:42:21;66.84;53.61;83.31;;
49568;Laerm;35474;51.032;6.998;2023-04-25T08:44:48;66.33;50.56;81.25;;
49568;Laerm;35474;51.032;6.998;2023-04-25T08:47:15;66.85;46.45;81.14;;
49568;Laerm;35474;51.032;6.998;2023-04-25T08:49:45;65.33;48.49;75.81;;
49568;Laerm;35474;51.032;6.998;2023-04-25T08:52:13;67.12;55.58;83.96;;
49568;Laerm;35474;51.032;6.998;2023-04-25T08:54:48;65.33;49.68;74.74;;
49568;Laerm;35474;51.032;6.998;2023-04-25T08:57:15;67.61;49.94;83.71;;
49568;Laerm;35474;51.032;6.998;2023-04-25T08:59:41;68.01;48.00;86.16;;
49568;Laerm;35474;51.032;6.998;2023-04-25T09:02:12;66.50;47.68;81.85;;
49568;Laerm;35474;51.032;6.998;2023-04-25T09:04:44;67.61;49.94;81.79;;
49568;Laerm;35474;51.032;6.998;2023-04-25T09:07:11;68.24;51.62;86.31;;
49568;Laerm;35474;51.032;6.998;2023-04-25T09:09:37;68.43;52.01;84.40;;
49568;Laerm;35474;51.032;6.998;2023-04-25T09:12:04;66.44;50.38;84.87;;
49568;Laerm;35474;51.032;6.998;2023-04-25T09:14:31;72.29;49.27;94.24;;
49568;Laerm;35474;51.032;6.998;2023-04-25T09:17:03;69.28;56.65;86.39;;
49568;Laerm;35474;51.032;6.998;2023-04-25T09:19:33;77.07;54.53;97.04;;
49568;Laerm;35474;51.032;6.998;2023-04-25T09:22:04;66.62;48.16;81.49;;
49568;Laerm;35474;51.032;6.998;2023-04-25T09:24:44;67.89;50.70;84.96;;
49568;Laerm;35474;51.032;6.998;2023-04-25T09:27:20;76.72;57.62;97.51;;
49568;Laerm;35474;51.032;6.998;2023-04-25T09:29:56;71.82;48.95;93.72;;
49568;Laerm;35474;51.032;6.998;2023-04-25T09:32:24;64.01;46.64;82.75;;
49568;Laerm;35474;51.032;6.998;2023-04-25T09:34:55;64.86;48.51;78.18;;
49568;Laerm;35474;51.032;6.998;2023-04-25T09:37:24;65.32;52.89;73.73;;
49568;Laerm;35474;51.032;6.998;2023-04-25T09:39:53;65.67;51.55;74.22;;
49568;Laerm;35474;51.032;6.998;2023-04-25T09:42:27;65.35;51.78;84.92;;
49568;Laerm;35474;51.032;6.998;2023-04-25T09:44:56;65.98;53.45;82.27;;
49568;Laerm;35474;51.032;6.998;2023-04-25T09:47:23;75.14;55.72;93.54;;
49568;Laerm;35474;51.032;6.998;2023-04-25T09:49:51;75.06;50.81;93.09;;
49568;Laerm;35474;51.032;6.998;2023-04-25T09:52:23;68.94;51.46;91.00;;
49568;Laerm;35474;51.032;6.998;2023-04-25T09:54:52;77.63;52.21;101.78;;
49568;Laerm;35474;51.032;6.998;2023-04-25T09:57:23;82.29;56.03;99.40;;
49568;Laerm;35474;51.032;6.998;2023-04-25T09:59:52;71.84;52.32;92.98;;
49568;Laerm;35474;51.032;6.998;2023-04-25T10:02:22;67.45;54.45;86.14;;
49568;Laerm;35474;51.032;6.998;2023-04-25T10:04:50;73.63;54.55;94.64;;
49568;Laerm;35474;51.032;6.998;2023-04-25T10:07:19;65.14;55.53;81.81;;
49568;Laerm;35474;51.032;6.998;2023-04-25T10:09:48;66.52;53.09;80.62;;
49568;Laerm;35474;51.032;6.998;2023-04-25T10:12:17;66.92;53.08;81.90;;
49568;Laerm;35474;51.032;6.998;2023-04-25T10:14:44;65.34;52.25;86.05;;
49568;Laerm;35474;51.032;6.998;2023-04-25T10:17:12;67.50;52.25;86.72;;
49568;Laerm;35474;51.032;6.998;2023-04-25T10:19:39;75.83;53.68;95.77;;
49568;Laerm;35474;51.032;6.998;2023-04-25T10:22:14;73.45;48.08;91.59;;
49568;Laerm;35474;51.032;6.998;2023-04-25T10:24:41;66.56;46.64;89.88;;
49568;Laerm;35474;51.032;6.998;2023-04-25T10:27:08;77.99;49.24;97.32;;
49568;Laerm;35474;51.032;6.998;2023-04-25T10:29:35;75.90;55.50;98.92;;
49568;Laerm;35474;51.032;6.998;2023-04-25T10:32:02;72.12;51.20;93.53;;
49568;Laerm;35474;51.032;6.998;2023-04-25T10:34:43;65.69;46.38;84.32;;
49568;Laerm;35474;51.032;6.998;2023-04-25T10:37:13;76.89;48.02;99.42;;
49568;Laerm;35474;51.032;6.998;2023-04-25T10:39:40;70.21;47.24;89.99;;
49568;Laerm;35474;51.032;6.998;2023-04-25T10:42:08;67.10;49.60;84.33;;
49568;Laerm;35474;51.032;6.998;2023-04-25T10:44:37;71.56;49.69;90.41;;
49568;Laerm;35474;51.032;6.998;2023-04-25T10:47:07;67.24;45.99;86.91;;
49568;Laerm;35474;51.032;6.998;2023-04-25T10:49:37;68.12;52.48;85.39;;
49568;Laerm;35474;51.032;6.998;2023-04-25T10:54:48;65.44;52.38;77.07;;
49568;Laerm;35474;51.032;6.998;2023-04-25T10:57:40;65.60;54.91;83.03;;
49568;Laerm;35474;51.032;6.998;2023-04-25T11:00:10;71.49;52.05;92.67;;
49568;Laerm;35474;51.032;6.998;2023-04-25T11:02:44;67.53;49.84;85.91;;
49568;Laerm;35474;51.032;6.998;2023-04-25T11:05:34;71.83;53.44;91.02;;
49568;Laerm;35474;51.032;6.998;2023-04-25T11:08:31;71.63;51.91;90.98;;
49568;Laerm;35474;51.032;6.998;2023-04-25T11:11:03;68.38;51.65;87.50;;
49568;Laerm;35474;51.032;6.998;2023-04-25T11:13:29;64.97;51.85;76.24;;
49568;Laerm;35474;51.032;6.998;2023-04-25T11:15:56;70.56;49.20;92.52;;
49568;Laerm;35474;51.032;6.998;2023-04-25T11:18:41;79.44;50.54;96.51;;
49568;Laerm;35474;51.032;6.998;2023-04-25T11:21:07;69.13;48.21;88.10;;
49568;Laerm;35474;51.032;6.998;2023-04-25T11:23:34;70.94;46.73;91.27;;
49568;Laerm;35474;51.032;6.998;2023-04-25T11:26:00;73.19;49.77;94.26;;
49568;Laerm;35474;51.032;6.998;2023-04-25T11:28:27;72.21;51.51;90.58;;
49568;Laerm;35474;51.032;6.998;2023-04-25T11:30:54;67.62;43.86;85.49;;
49568;Laerm;35474;51.032;6.998;2023-04-25T11:33:25;69.67;48.32;89.21;;
49568;Laerm;35474;51.032;6.998;2023-04-25T11:35:54;64.61;55.61;74.01;;
49568;Laerm;35474;51.032;6.998;2023-04-25T11:38:25;66.04;48.43;81.65;;
49568;Laerm;35474;51.032;6.998;2023-04-25T11:40:54;73.22;49.59;93.21;;
49568;Laerm;35474;51.032;6.998;2023-04-25T11:43:21;65.34;55.83;81.49;;
49568;Laerm;35474;51.032;6.998;2023-04-25T11:45:49;71.02;54.12;91.30;;
49568;Laerm;35474;51.032;6.998;2023-04-25T11:48:20;65.92;52.11;86.57;;
49568;Laerm;35474;51.032;6.998;2023-04-25T11:50:51;63.59;50.37;83.30;;
49568;Laerm;35474;51.032;6.998;2023-04-25T11:53:19;70.35;55.82;89.34;;
49568;Laerm;35474;51.032;6.998;2023-04-25T11:55:46;67.17;57.16;81.93;;
49568;Laerm;35474;51.032;6.998;2023-04-25T11:58:13;68.65;50.07;87.78;;
49568;Laerm;35474;51.032;6.998;2023-04-25T12:00:42;74.13;55.14;93.82;;
49568;Laerm;35474;51.032;6.998;2023-04-25T12:03:17;66.57;54.20;88.98;;
49568;Laerm;35474;51.032;6.998;2023-04-25T12:05:45;76.96;55.71;95.74;;
49568;Laerm;35474;51.032;6.998;2023-04-25T12:08:13;70.56;56.93;87.25;;
49568;Laerm;35474;51.032;6.998;2023-04-25T12:10:44;73.46;57.70;92.40;;
49568;Laerm;35474;51.032;6.998;2023-04-25T12:13:38;69.12;58.00;82.18;;
49568;Laerm;35474;51.032;6.998;2023-04-25T12:16:04;71.87;58.92;96.56;;
49568;Laerm;35474;51.032;6.998;2023-04-25T12:18:35;69.36;54.21;91.30;;
49568;Laerm;35474;51.032;6.998;2023-04-25T12:21:04;69.16;46.48;85.79;;
49568;Laerm;35474;51.032;6.998;2023-04-25T12:23:30;66.76;52.89;82.28;;
49568;Laerm;35474;51.032;6.998;2023-04-25T12:25:57;64.91;48.95;80.83;;
49568;Laerm;35474;51.032;6.998;2023-04-25T12:28:24;68.35;48.83;89.37;;
49568;Laerm;35474;51.032;6.998;2023-04-25T12:31:01;68.98;49.52;90.05;;
49568;Laerm;35474;51.032;6.998;2023-04-25T12:33:36;72.51;50.85;91.36;;
49568;Laerm;35474;51.032;6.998;2023-04-25T12:36:04;65.59;48.36;79.53;;
49568;Laerm;35474;51.032;6.998;2023-04-25T12:38:40;70.15;50.13;89.04;;
49568;Laerm;35474;51.032;6.998;2023-04-25T12:41:08;76.77;52.02;98.78;;
49568;Laerm;35474;51.032;6.998;2023-04-25T12:43:34;71.09;52.59;91.30;;
49568;Laerm;35474;51.032;6.998;2023-04-25T12:46:01;73.72;54.78;92.12;;
49568;Laerm;35474;51.032;6.998;2023-04-25T12:48:27;80.88;53.48;100.82;;
49568;Laerm;35474;51.032;6.998;2023-04-25T12:50:54;78.59;54.15;99.66;;
49568;Laerm;35474;51.032;6.998;2023-04-25T12:53:22;73.52;53.50;94.36;;
49568;Laerm;35474;51.032;6.998;2023-04-25T12:55:49;71.73;55.22;93.35;;
49568;Laerm;35474;51.032;6.998;2023-04-25T12:58:17;71.91;50.26;92.87;;
49568;Laerm;35474;51.032;6.998;2023-04-25T13:00:45;68.64;50.57;90.63;;
49568;Laerm;35474;51.032;6.998;2023-04-25T13:03:12;68.34;57.24;83.29;;
49568;Laerm;35474;51.032;6.998;2023-04-25T13:05:39;66.00;48.18;82.78;;
49568;Laerm;35474;51.032;6.998;2023-04-25T13:08:06;68.12;50.88;88.47;;
49568;Laerm;35474;51.032;6.998;2023-04-25T13:10:33;68.43;50.04;87.67;;
49568;Laerm;35474;51.032;6.998;2023-04-25T13:13:02;66.61;56.44;73.22;;
49568;Laerm;35474;51.032;6.998;2023-04-25T13:15:30;67.82;53.19;86.69;;
49568;Laerm;35474;51.032;6.998;2023-04-25T13:17:56;67.77;48.63;84.91;;
49568;Laerm;35474;51.032;6.998;2023-04-25T13:20:23;71.39;52.62;89.45;;
49568;Laerm;35474;51.032;6.998;2023-04-25T13:22:49;71.86;53.45;93.33;;
49568;Laerm;35474;51.032;6.998;2023-04-25T13:25:16;76.35;54.04;97.76;;
49568;Laerm;35474;51.032;6.998;2023-04-25T13:27:43;68.25;57.07;86.92;;
49568;Laerm;35474;51.032;6.998;2023-04-25T13:30:10;65.94;55.09;78.14;;
49568;Laerm;35474;51.032;6.998;2023-04-25T13:32:38;64.45;48.29;77.17;;
49568;Laerm;35474;51.032;6.998;2023-04-25T13:35:06;68.50;54.02;86.78;;
49568;Laerm;35474;51.032;6.998;2023-04-25T13:37:36;65.54;45.86;79.39;;
49568;Laerm;35474;51.032;6.998;2023-04-25T13:40:06;65.08;47.50;79.51;;
49568;Laerm;35474;51.032;6.998;2023-04-25T13:42:36;65.28;52.74;73.41;;
49568;Laerm;35474;51.032;6.998;2023-04-25T13:45:03;73.45;58.53;88.58;;
49568;Laerm;35474;51.032;6.998;2023-04-25T13:47:30;67.08;50.98;83.03;;
49568;Laerm;35474;51.032;6.998;2023-04-25T13:49:56;65.15;47.88;72.89;;
49568;Laerm;35474;51.032;6.998;2023-04-25T13:52:23;66.24;49.69;77.65;;